Decoded Metar for CYQV (YORKTON in SK, CANADA) (IATA:YQV) | Meteo·Mobile Aviation Weather
aviador You're here:

CYQV Decoded Metar

YORKTON in SK, CANADA
Report Time2018-12-16 17:00:00
UTC Time2018-12-16 17:20:58
Flight Rules vfr VFR
Wind300° at 14 Gusting to 19 kt
W.Decomp.*RWY 30: 13.8 kt HW 2.4 kt LCW
RWY 21: 2.4 kt HW 13.8 kt RCW
W.Rank300° ranks 1
Current wind is above 300° avg. (11.2)
Visibility9999 m
Phenomena:N/A
Clouds:N/A
Expected CloudBase > 1,600 ft AGL from Temp-Dew spread
CeilingNone
Temp-10°C (ISA -22)
Dew Point-14°C (73% RH)
AAT-18.4°C
QNH1021 hPa
Density Alt-1,312 ft
Elevation1,634 ft
Report Wrong Elevation
Raw Report
CYQV 161700Z AUTO 30014G19KT 9SM CLR M10/M14 A3015 RMK SLP246=

Extra information for CYQV:More info

Metar Taf Metar & Taf Last 4 Metars F.Rules Stats Wind Profile Meteogram Temp Stats Airport Information Weather charts Add Link Nearby VenuesMetar ALERT Operation Metar Decoded Social comments